Time;durP1;ratioP1;P1;durP2;ratioP2;P2;SDS_P1;SDS_P2;PMS_P1;PMS_P2;Temp;Humidity;BMP_temperature;BMP_pressure;BME280_temperature;BME280_humidity;BME280_pressure;Samples;Min_cycle;Max_cycle;Signal;HPM_P1;HPM_P2
2021/09/16 00:01:37;;;;;;;13.93;8.93;;;13.90;85.50;;;;;;4985479;28;20031;-73
2021/09/16 00:04:04;;;;;;;14.02;9.88;;;13.90;85.50;;;;;;4985203;28;20038;-74
2021/09/16 00:06:30;;;;;;;15.60;9.57;;;13.90;85.70;;;;;;4985276;28;20070;-72
2021/09/16 00:08:55;;;;;;;17.20;11.02;;;14.00;86.00;;;;;;4986647;28;20601;-72
2021/09/16 00:11:21;;;;;;;15.48;10.55;;;14.00;86.20;;;;;;4989279;28;20524;-72
2021/09/16 00:13:47;;;;;;;17.10;10.32;;;14.00;86.30;;;;;;4988454;28;20027;-73
2021/09/16 00:16:13;;;;;;;16.23;10.57;;;14.00;86.40;;;;;;4980005;28;20093;-74
2021/09/16 00:18:39;;;;;;;16.15;10.23;;;14.00;86.50;;;;;;4987799;28;20470;-73
2021/09/16 00:21:04;;;;;;;14.43;10.27;;;14.00;86.70;;;;;;4983592;28;20050;-72
2021/09/16 00:23:30;;;;;;;19.63;10.95;;;13.90;86.60;;;;;;4988538;28;20426;-72
2021/09/16 00:25:56;;;;;;;19.48;12.07;;;13.90;86.80;;;;;;4981174;28;20493;-72
2021/09/16 00:28:21;;;;;;;17.17;11.35;;;13.80;87.00;;;;;;4990548;28;20494;-72
2021/09/16 00:30:47;;;;;;;18.35;11.07;;;13.80;87.20;;;;;;4989658;28;20085;-74
2021/09/16 00:33:13;;;;;;;18.38;11.20;;;13.80;87.30;;;;;;4989223;28;20121;-73
2021/09/16 00:35:38;;;;;;;18.35;10.70;;;13.70;87.40;;;;;;4981959;28;20034;-72
2021/09/16 00:38:04;;;;;;;14.60;11.45;;;13.70;87.50;;;;;;4987028;28;20390;-72
2021/09/16 00:40:31;;;;;;;19.00;12.65;;;13.70;87.50;;;;;;4987426;28;20034;-72
2021/09/16 00:42:56;;;;;;;16.13;11.20;;;13.60;87.60;;;;;;4984285;28;20042;-72
2021/09/16 00:45:22;;;;;;;17.17;11.93;;;13.60;87.70;;;;;;4985424;28;20050;-73
2021/09/16 00:47:49;;;;;;;15.20;10.02;;;13.60;87.70;;;;;;4986354;28;20561;-74
2021/09/16 00:50:17;;;;;;;17.13;11.90;;;13.60;87.80;;;;;;4983962;28;20415;-72
2021/09/16 00:52:43;;;;;;;15.20;11.32;;;13.60;87.80;;;;;;4991697;28;20442;-73
2021/09/16 00:55:10;;;;;;;15.63;10.90;;;13.60;87.80;;;;;;4984667;28;20445;-73
2021/09/16 00:57:38;;;;;;;16.25;10.93;;;13.50;87.80;;;;;;4987785;28;20030;-72
2021/09/16 01:00:07;;;;;;;14.45;10.55;;;13.50;87.80;;;;;;4979655;28;20076;-75
2021/09/16 01:02:33;;;;;;;17.38;10.65;;;13.50;87.80;;;;;;4985438;28;20486;-72
2021/09/16 01:04:59;;;;;;;16.25;11.25;;;13.50;87.80;;;;;;4986137;28;20046;-73
2021/09/16 01:07:25;;;;;;;16.05;10.90;;;13.50;87.70;;;;;;4985054;28;20453;-74
2021/09/16 01:09:51;;;;;;;15.82;10.40;;;13.40;87.70;;;;;;4987784;28;20026;-73
2021/09/16 01:12:16;;;;;;;18.33;11.50;;;13.40;87.70;;;;;;4982990;28;20496;-73
2021/09/16 01:14:43;;;;;;;17.48;12.15;;;13.40;87.60;;;;;;4987233;28;20049;-72
2021/09/16 01:17:09;;;;;;;16.55;11.20;;;13.40;87.50;;;;;;4983308;28;20038;-73
2021/09/16 01:19:35;;;;;;;16.77;11.98;;;13.40;87.40;;;;;;4979318;28;20042;-74
2021/09/16 01:22:01;;;;;;;16.63;12.35;;;13.40;87.50;;;;;;4984327;28;20037;-74
2021/09/16 01:24:26;;;;;;;16.08;12.00;;;13.40;87.50;;;;;;4985818;28;20034;-72
2021/09/16 01:26:52;;;;;;;19.30;13.45;;;13.40;87.60;;;;;;4986508;28;20077;-73
2021/09/16 01:29:18;;;;;;;16.65;11.60;;;13.40;87.60;;;;;;4977624;28;20393;-73
2021/09/16 01:31:49;;;;;;;21.30;12.80;;;13.30;87.70;;;;;;4986659;28;20038;-74
2021/09/16 01:34:17;;;;;;;22.90;13.18;;;13.30;87.70;;;;;;4985242;28;20034;-73
2021/09/16 01:36:44;;;;;;;20.80;13.10;;;13.30;87.70;;;;;;4987953;28;20058;-73
2021/09/16 01:39:15;;;;;;;24.23;14.35;;;13.20;87.70;;;;;;4975690;28;20031;-73
2021/09/16 01:41:41;;;;;;;20.90;13.43;;;13.20;87.80;;;;;;4987832;28;20038;-73
2021/09/16 01:44:06;;;;;;;19.70;12.95;;;13.10;87.80;;;;;;4987408;28;20609;-74
2021/09/16 01:46:33;;;;;;;23.65;14.00;;;13.10;88.00;;;;;;4983343;28;20050;-74
2021/09/16 01:49:01;;;;;;;21.98;13.90;;;13.10;88.10;;;;;;4980428;28;20371;-75
2021/09/16 01:51:28;;;;;;;21.90;13.48;;;13.10;88.30;;;;;;4986634;28;20042;-72
2021/09/16 01:53:54;;;;;;;18.25;12.68;;;13.10;88.50;;;;;;4987103;28;20030;-73
2021/09/16 01:56:19;;;;;;;17.38;11.23;;;13.10;88.50;;;;;;4982308;28;20026;-73
2021/09/16 01:58:45;;;;;;;17.70;12.52;;;13.10;88.60;;;;;;4980379;28;20921;-73
2021/09/16 02:01:11;;;;;;;16.95;12.27;;;13.10;88.70;;;;;;4983780;28;20180;-74
2021/09/16 02:03:36;;;;;;;18.40;11.43;;;13.10;88.50;;;;;;4981855;28;20086;-72
2021/09/16 02:06:02;;;;;;;20.60;12.68;;;13.00;88.50;;;;;;4984274;28;20050;-73
2021/09/16 02:08:28;;;;;;;16.17;11.77;;;13.00;88.50;;;;;;4982694;28;20666;-75
2021/09/16 02:10:53;;;;;;;16.23;11.77;;;13.00;88.50;;;;;;4983534;28;20068;-71
2021/09/16 02:13:20;;;;;;;16.30;11.73;;;13.00;88.50;;;;;;4986758;28;20113;-72
2021/09/16 02:15:46;;;;;;;19.00;12.10;;;13.00;88.40;;;;;;4982846;28;20121;-72
2021/09/16 02:18:12;;;;;;;19.52;12.38;;;13.00;88.30;;;;;;4985461;28;20034;-73
2021/09/16 02:20:38;;;;;;;19.27;12.50;;;13.00;88.30;;;;;;4987677;28;20101;-72
2021/09/16 02:23:04;;;;;;;15.43;10.93;;;13.00;88.20;;;;;;4979394;28;20026;-75
2021/09/16 02:25:30;;;;;;;19.13;12.30;;;13.00;88.20;;;;;;4984995;28;20050;-72
2021/09/16 02:27:55;;;;;;;17.45;11.63;;;13.00;88.30;;;;;;4986943;28;20093;-72
2021/09/16 02:30:21;;;;;;;19.55;12.20;;;13.00;88.30;;;;;;4986755;28;20038;-73
2021/09/16 02:32:47;;;;;;;16.17;11.32;;;12.90;88.30;;;;;;4987092;28;20160;-72
2021/09/16 02:35:13;;;;;;;17.02;12.98;;;12.90;88.10;;;;;;4981655;28;20034;-72
2021/09/16 02:37:40;;;;;;;18.27;12.68;;;12.90;88.00;;;;;;4977791;28;20557;-76
2021/09/16 02:40:07;;;;;;;15.57;12.27;;;12.80;88.20;;;;;;4979111;28;20373;-75
2021/09/16 02:42:33;;;;;;;16.25;12.60;;;12.80;88.30;;;;;;4983252;28;20045;-76
2021/09/16 02:44:59;;;;;;;15.85;12.20;;;12.80;88.30;;;;;;4977958;28;20050;-72
2021/09/16 02:47:25;;;;;;;19.52;13.25;;;12.80;88.40;;;;;;4979346;28;20109;-72
2021/09/16 02:49:50;;;;;;;18.20;13.07;;;12.80;88.60;;;;;;4984468;28;20471;-72
2021/09/16 02:52:16;;;;;;;20.08;13.63;;;12.80;88.60;;;;;;4985692;28;20093;-77
2021/09/16 02:54:42;;;;;;;16.40;12.40;;;12.90;88.70;;;;;;4987256;28;20038;-73
2021/09/16 02:57:07;;;;;;;20.02;13.43;;;12.80;88.70;;;;;;4997606;28;20389;-73
2021/09/16 02:59:33;;;;;;;16.75;12.10;;;12.90;88.70;;;;;;5005049;28;20523;-73
2021/09/16 03:01:59;;;;;;;19.65;14.05;;;12.90;88.80;;;;;;4997662;28;20031;-72
2021/09/16 03:04:24;;;;;;;15.88;12.48;;;12.90;88.80;;;;;;4993567;28;20043;-78
2021/09/16 03:06:50;;;;;;;19.15;13.23;;;12.80;88.80;;;;;;4984350;28;20049;-73
2021/09/16 03:09:17;;;;;;;16.73;12.38;;;12.80;88.80;;;;;;4983186;28;20065;-75
2021/09/16 03:11:43;;;;;;;20.20;13.27;;;12.80;88.90;;;;;;4984972;28;20038;-72
2021/09/16 03:14:08;;;;;;;16.35;12.13;;;12.80;89.00;;;;;;4981137;28;20042;-72
2021/09/16 03:16:34;;;;;;;16.17;12.05;;;12.80;89.10;;;;;;4981118;28;20035;-72
2021/09/16 03:19:00;;;;;;;20.13;12.70;;;12.80;89.10;;;;;;4985019;28;20038;-73
2021/09/16 03:21:25;;;;;;;17.42;12.60;;;12.80;89.10;;;;;;4985489;28;20046;-72
2021/09/16 03:23:51;;;;;;;22.48;13.35;;;12.80;89.10;;;;;;4987961;28;20389;-72
2021/09/16 03:26:17;;;;;;;15.20;12.27;;;12.80;89.20;;;;;;4984166;28;20517;-73
2021/09/16 03:28:42;;;;;;;16.73;12.57;;;12.80;89.20;;;;;;4978899;28;20479;-72
2021/09/16 03:31:08;;;;;;;18.48;12.75;;;12.70;89.30;;;;;;4991238;28;20037;-72
2021/09/16 03:33:34;;;;;;;15.93;11.63;;;12.80;89.30;;;;;;5007211;28;20042;-75
2021/09/16 03:36:00;;;;;;;17.65;12.05;;;12.70;89.40;;;;;;4999948;28;20478;-75
2021/09/16 03:38:26;;;;;;;21.58;12.50;;;12.70;89.40;;;;;;4991812;28;20042;-73
2021/09/16 03:40:51;;;;;;;15.95;11.73;;;12.70;89.40;;;;;;4990630;28;20039;-71
2021/09/16 03:43:17;;;;;;;15.90;12.15;;;12.70;89.40;;;;;;4991572;28;20077;-71
2021/09/16 03:45:43;;;;;;;15.70;12.02;;;12.70;89.40;;;;;;4991305;28;20042;-71
2021/09/16 03:48:08;;;;;;;16.63;12.63;;;12.70;89.50;;;;;;4988567;28;20034;-73
2021/09/16 03:50:36;;;;;;;21.92;13.50;;;12.70;89.60;;;;;;4984355;28;20049;-72
2021/09/16 03:53:02;;;;;;;15.85;11.57;;;12.70;89.60;;;;;;4988894;28;20038;-72
2021/09/16 03:55:27;;;;;;;16.52;11.68;;;12.70;89.70;;;;;;4989827;28;20121;-74
2021/09/16 03:57:53;;;;;;;18.98;13.52;;;12.70;89.70;;;;;;4980706;28;20117;-71
2021/09/16 04:00:19;;;;;;;18.10;11.90;;;12.70;89.80;;;;;;4988868;28;20459;-71
2021/09/16 04:02:45;;;;;;;21.60;12.90;;;12.70;89.70;;;;;;4982691;28;20117;-71
2021/09/16 04:05:11;;;;;;;16.55;12.45;;;12.70;89.80;;;;;;4986398;28;20045;-72
2021/09/16 04:07:37;;;;;;;18.30;11.80;;;12.70;89.80;;;;;;4985437;28;20058;-72
2021/09/16 04:10:05;;;;;;;15.77;11.55;;;12.70;89.80;;;;;;4983232;28;20069;-71
2021/09/16 04:12:30;;;;;;;15.70;12.13;;;12.60;89.80;;;;;;4987978;28;20077;-71
2021/09/16 04:14:56;;;;;;;17.08;11.13;;;12.70;89.80;;;;;;4985342;28;20058;-71
2021/09/16 04:17:22;;;;;;;18.02;12.43;;;12.60;89.80;;;;;;4984281;28;20054;-72
2021/09/16 04:19:47;;;;;;;17.73;13.32;;;12.60;89.80;;;;;;4987732;28;20669;-73
2021/09/16 04:22:13;;;;;;;18.02;12.75;;;12.60;89.70;;;;;;4986133;28;20130;-73
2021/09/16 04:24:39;;;;;;;16.58;12.00;;;12.60;89.60;;;;;;4987105;28;20117;-72
2021/09/16 04:27:04;;;;;;;17.20;12.57;;;12.60;89.70;;;;;;4978113;28;20038;-72
2021/09/16 04:29:30;;;;;;;16.45;11.95;;;12.60;89.70;;;;;;4986695;28;20113;-73
2021/09/16 04:31:56;;;;;;;19.05;12.02;;;12.50;89.70;;;;;;4979010;28;20117;-72
2021/09/16 04:34:22;;;;;;;17.67;12.68;;;12.50;89.70;;;;;;4983879;28;20038;-72
2021/09/16 04:36:48;;;;;;;19.00;12.52;;;12.50;89.70;;;;;;4985240;28;20030;-76
2021/09/16 04:39:14;;;;;;;20.60;13.82;;;12.40;89.70;;;;;;4982242;28;20105;-71
2021/09/16 04:41:40;;;;;;;18.58;13.27;;;12.50;89.70;;;;;;4987818;28;20044;-72
2021/09/16 04:44:06;;;;;;;17.23;13.48;;;12.40;89.70;;;;;;4986415;28;20113;-72
2021/09/16 04:46:32;;;;;;;19.13;13.30;;;12.50;89.70;;;;;;4983053;28;20093;-71
2021/09/16 04:48:57;;;;;;;20.02;13.77;;;12.50;89.70;;;;;;4984544;28;20478;-72
2021/09/16 04:51:23;;;;;;;19.88;12.55;;;12.40;89.60;;;;;;4988515;28;20084;-72
2021/09/16 04:53:49;;;;;;;20.23;13.60;;;12.40;89.60;;;;;;4985274;28;20142;-73
2021/09/16 04:56:14;;;;;;;26.13;15.15;;;12.50;89.60;;;;;;4982783;28;20493;-73
2021/09/16 04:58:40;;;;;;;16.85;13.50;;;12.40;89.60;;;;;;4982911;28;20442;-74
2021/09/16 05:01:06;;;;;;;19.10;12.65;;;12.40;89.60;;;;;;4982089;28;20552;-73
2021/09/16 05:03:31;;;;;;;20.38;13.93;;;12.40;89.70;;;;;;4981369;28;20038;-73
2021/09/16 05:05:57;;;;;;;19.92;14.02;;;12.50;89.70;;;;;;4989957;28;20049;-78
2021/09/16 05:08:23;;;;;;;17.33;14.05;;;12.40;89.70;;;;;;5003292;28;20552;-74
2021/09/16 05:10:49;;;;;;;20.30;13.88;;;12.40;89.70;;;;;;4998895;28;20034;-72
2021/09/16 05:13:14;;;;;;;21.20;13.95;;;12.40;89.70;;;;;;5000593;28;20026;-73
2021/09/16 05:15:40;;;;;;;21.17;14.18;;;12.40;89.80;;;;;;5003103;28;20113;-74
2021/09/16 05:18:07;;;;;;;19.27;14.43;;;12.40;89.80;;;;;;5005168;28;20053;-74
2021/09/16 05:20:34;;;;;;;21.80;14.00;;;12.40;89.80;;;;;;4998947;28;20056;-72
2021/09/16 05:23:00;;;;;;;22.40;16.67;;;12.30;89.90;;;;;;5002547;28;20072;-74
2021/09/16 05:25:26;;;;;;;22.15;15.05;;;12.40;89.90;;;;;;5000800;28;20077;-74
2021/09/16 05:27:52;;;;;;;23.58;15.95;;;12.40;89.90;;;;;;5000458;28;20033;-70
2021/09/16 05:30:18;;;;;;;21.38;16.55;;;12.40;89.90;;;;;;5002308;28;20533;-70
2021/09/16 05:32:44;;;;;;;23.23;17.67;;;12.40;89.90;;;;;;4997885;28;20025;-70
2021/09/16 05:35:10;;;;;;;22.15;15.60;;;12.40;89.90;;;;;;5004011;28;20381;-72
2021/09/16 05:37:37;;;;;;;22.85;15.50;;;12.40;90.00;;;;;;4981023;28;20267;-70
2021/09/16 05:40:04;;;;;;;26.73;18.92;;;12.50;90.00;;;;;;4986585;28;20038;-72
2021/09/16 05:42:30;;;;;;;24.02;16.92;;;12.50;90.00;;;;;;4980628;28;20039;-71
2021/09/16 05:44:56;;;;;;;26.50;18.23;;;12.50;90.00;;;;;;4983858;28;20041;-71
2021/09/16 05:47:22;;;;;;;28.80;19.50;;;12.50;90.00;;;;;;4984517;28;20043;-70
2021/09/16 05:49:47;;;;;;;28.02;19.92;;;12.60;90.00;;;;;;4987123;28;20104;-70
2021/09/16 05:52:14;;;;;;;30.63;19.88;;;12.60;90.10;;;;;;4981731;28;20035;-70
2021/09/16 05:54:40;;;;;;;28.92;20.55;;;12.60;90.00;;;;;;4984274;28;20030;-70
2021/09/16 05:57:06;;;;;;;29.80;21.00;;;12.60;90.00;;;;;;4975433;28;20105;-74
2021/09/16 05:59:31;;;;;;;28.48;19.67;;;12.60;90.00;;;;;;4988562;28;20650;-76
2021/09/16 06:01:57;;;;;;;30.10;20.13;;;12.70;90.00;;;;;;4978952;28;20038;-70
2021/09/16 06:04:24;;;;;;;29.50;22.08;;;12.70;90.00;;;;;;4983645;28;20056;-71
2021/09/16 06:06:50;;;;;;;36.05;26.02;;;12.80;90.00;;;;;;4996351;28;20044;-70
2021/09/16 06:09:16;;;;;;;31.67;23.60;;;12.90;90.00;;;;;;5000551;28;20031;-71
2021/09/16 06:11:42;;;;;;;34.05;25.40;;;12.90;90.00;;;;;;4996320;28;20100;-72
2021/09/16 06:14:08;;;;;;;40.00;26.33;;;13.00;90.00;;;;;;4995002;28;20041;-70
2021/09/16 06:16:33;;;;;;;36.05;25.50;;;13.10;89.90;;;;;;4999538;28;20342;-70
2021/09/16 06:18:59;;;;;;;33.72;24.90;;;13.10;89.90;;;;;;5001155;28;20358;-70
2021/09/16 06:21:25;;;;;;;38.67;28.17;;;13.20;89.80;;;;;;5003080;28;20386;-70
2021/09/16 06:23:51;;;;;;;36.40;26.38;;;13.30;89.90;;;;;;5008097;28;20479;-71
2021/09/16 06:26:17;;;;;;;38.63;27.42;;;13.30;89.90;;;;;;4998075;28;20053;-71
2021/09/16 06:28:43;;;;;;;41.10;29.50;;;13.50;89.90;;;;;;5003657;28;20121;-71
2021/09/16 06:31:09;;;;;;;44.83;31.83;;;13.60;89.80;;;;;;5002387;28;20026;-73
2021/09/16 06:33:34;;;;;;;40.88;29.10;;;13.70;89.80;;;;;;5006515;28;20470;-70
2021/09/16 06:36:00;;;;;;;38.22;29.65;;;14.10;89.80;;;;;;5004957;28;20037;-70
2021/09/16 06:38:26;;;;;;;40.38;29.85;;;14.70;88.40;;;;;;5004539;28;20041;-71
2021/09/16 06:40:52;;;;;;;44.53;28.80;;;15.00;87.00;;;;;;4996467;28;20121;-70
2021/09/16 06:43:18;;;;;;;37.70;28.17;;;15.10;85.70;;;;;;5005081;28;20485;-69
2021/09/16 06:45:43;;;;;;;43.45;29.63;;;15.10;86.20;;;;;;5006581;28;20474;-70
2021/09/16 06:48:09;;;;;;;44.40;30.90;;;15.00;86.40;;;;;;5002957;28;20469;-70
2021/09/16 06:50:35;;;;;;;40.30;30.88;;;14.90;86.90;;;;;;4998213;28;20030;-70
2021/09/16 06:53:01;;;;;;;41.08;30.38;;;15.00;87.20;;;;;;5003379;28;20036;-68
2021/09/16 06:55:27;;;;;;;48.17;34.40;;;15.00;87.50;;;;;;5005120;28;20056;-69
2021/09/16 06:57:53;;;;;;;42.45;31.70;;;15.00;87.30;;;;;;5000195;28;20482;-68
2021/09/16 07:00:18;;;;;;;43.92;32.03;;;15.10;87.50;;;;;;5003126;28;20074;-72
2021/09/16 07:02:49;;;;;;;41.47;32.50;;;15.10;87.60;;;;;;5003276;28;20117;-69
2021/09/16 07:05:16;;;;;;;44.70;33.60;;;15.20;87.60;;;;;;4998013;28;20045;-72
2021/09/16 07:07:42;;;;;;;43.15;32.22;;;15.30;87.60;;;;;;4996630;28;20119;-69
2021/09/16 07:10:08;;;;;;;45.08;33.90;;;15.40;87.60;;;;;;4999427;28;20081;-74
2021/09/16 07:12:35;;;;;;;43.45;33.53;;;15.50;87.40;;;;;;5004320;28;20045;-70
2021/09/16 07:15:01;;;;;;;44.05;31.85;;;15.60;87.20;;;;;;5000383;28;20034;-69
2021/09/16 07:17:27;;;;;;;42.53;32.22;;;15.60;87.30;;;;;;5002162;28;20046;-68
2021/09/16 07:19:53;;;;;;;43.85;31.80;;;15.70;87.00;;;;;;5002609;28;20040;-71
2021/09/16 07:22:18;;;;;;;39.90;30.77;;;15.80;86.50;;;;;;5002609;28;20385;-72
2021/09/16 07:24:44;;;;;;;41.97;31.27;;;15.90;86.80;;;;;;5003513;28;20049;-69
2021/09/16 07:27:10;;;;;;;41.20;31.27;;;16.00;86.60;;;;;;5003343;28;20112;-70
2021/09/16 07:29:36;;;;;;;41.40;31.70;;;16.10;86.70;;;;;;5002864;28;20034;-70
2021/09/16 07:32:03;;;;;;;42.53;34.22;;;16.30;86.50;;;;;;5007924;28;20042;-69
2021/09/16 07:34:29;;;;;;;48.10;35.47;;;16.50;86.40;;;;;;5009766;28;20440;-69
2021/09/16 07:36:55;;;;;;;50.60;36.33;;;16.60;85.10;;;;;;5006941;28;20429;-70
2021/09/16 07:39:21;;;;;;;46.67;34.00;;;16.80;85.40;;;;;;4999782;28;20552;-70
2021/09/16 07:41:48;;;;;;;44.17;33.45;;;17.00;84.80;;;;;;4994380;28;20134;-75
2021/09/16 07:44:15;;;;;;;45.65;32.30;;;17.10;84.80;;;;;;4995587;28;20109;-73
2021/09/16 07:46:41;;;;;;;46.85;36.05;;;17.40;84.20;;;;;;5003539;28;20084;-69
2021/09/16 07:49:07;;;;;;;45.50;33.67;;;17.60;83.50;;;;;;5008116;28;20070;-70
2021/09/16 07:51:33;;;;;;;41.15;32.58;;;17.90;83.20;;;;;;5007381;28;20054;-71
2021/09/16 07:53:59;;;;;;;40.17;31.90;;;18.10;82.60;;;;;;5003925;28;20026;-69
2021/09/16 07:56:25;;;;;;;37.15;30.23;;;18.10;81.70;;;;;;5008882;28;20048;-69
2021/09/16 07:58:50;;;;;;;42.97;31.92;;;18.20;81.50;;;;;;5006167;28;20030;-69
2021/09/16 08:01:16;;;;;;;41.20;30.90;;;18.40;81.50;;;;;;5003136;28;20508;-72
2021/09/16 08:03:42;;;;;;;40.08;32.10;;;18.50;81.50;;;;;;5005327;28;20034;-69
2021/09/16 08:06:08;;;;;;;39.55;31.13;;;18.60;81.30;;;;;;5004965;28;20041;-71
2021/09/16 08:08:34;;;;;;;38.33;32.30;;;18.90;80.40;;;;;;5003075;28;20026;-69
2021/09/16 08:11:00;;;;;;;40.65;29.85;;;19.00;80.00;;;;;;5005471;28;20559;-69
2021/09/16 08:13:26;;;;;;;40.13;31.40;;;19.10;79.90;;;;;;5002204;28;20045;-69
2021/09/16 08:15:53;;;;;;;34.00;27.80;;;19.40;78.80;;;;;;5004462;28;20033;-71
2021/09/16 08:18:19;;;;;;;33.80;27.05;;;19.50;78.30;;;;;;5002461;28;20479;-73
2021/09/16 08:20:49;;;;;;;32.70;27.25;;;19.70;78.70;;;;;;5003889;28;20045;-69
2021/09/16 08:23:16;;;;;;;35.38;28.55;;;20.00;77.00;;;;;;5006090;28;20120;-69
2021/09/16 08:25:42;;;;;;;34.97;26.77;;;20.10;76.40;;;;;;5008127;28;20049;-69
2021/09/16 08:28:08;;;;;;;37.63;26.98;;;20.30;75.30;;;;;;5007563;28;20088;-70
2021/09/16 08:30:34;;;;;;;33.30;26.10;;;20.30;75.30;;;;;;5006840;28;20465;-70
2021/09/16 08:33:00;;;;;;;31.13;25.45;;;20.50;74.20;;;;;;5006392;28;20042;-70
2021/09/16 08:35:26;;;;;;;30.40;24.77;;;20.60;73.50;;;;;;5004935;28;21135;-69
2021/09/16 08:37:52;;;;;;;29.38;24.45;;;20.60;73.40;;;;;;5000229;28;20081;-69
2021/09/16 08:40:19;;;;;;;31.20;27.20;;;20.60;74.00;;;;;;5005876;28;20050;-70
2021/09/16 08:42:45;;;;;;;33.20;26.20;;;20.60;73.50;;;;;;5002091;28;20055;-70
2021/09/16 08:45:15;;;;;;;32.13;26.60;;;20.50;74.00;;;;;;5005991;28;20500;-70
2021/09/16 08:47:45;;;;;;;35.70;25.45;;;20.00;75.40;;;;;;5002280;28;20041;-69
2021/09/16 08:50:13;;;;;;;32.28;25.65;;;20.00;76.30;;;;;;5004712;28;20117;-71
2021/09/16 08:52:44;;;;;;;32.22;27.20;;;20.00;76.60;;;;;;5006273;28;20042;-70
2021/09/16 08:55:12;;;;;;;35.72;26.00;;;20.10;75.50;;;;;;5006565;28;20034;-70
2021/09/16 08:57:41;;;;;;;31.10;24.73;;;20.20;75.70;;;;;;5006518;28;20030;-70
2021/09/16 09:00:10;;;;;;;33.53;27.67;;;20.30;75.80;;;;;;5002737;28;20056;-72
2021/09/16 09:02:37;;;;;;;35.22;27.52;;;20.60;75.50;;;;;;5001986;28;20473;-70
2021/09/16 09:05:04;;;;;;;29.08;24.95;;;20.80;74.70;;;;;;5000072;28;20042;-70
2021/09/16 09:07:42;;;;;;;31.08;25.98;;;20.90;73.30;;;;;;4997383;28;20045;-69
2021/09/16 09:10:11;;;;;;;29.80;24.23;;;21.00;72.50;;;;;;5002295;28;20128;-69
2021/09/16 09:12:38;;;;;;;28.15;23.27;;;20.80;73.20;;;;;;5002142;28;20064;-70
2021/09/16 09:15:10;;;;;;;30.40;23.58;;;20.90;72.90;;;;;;5000903;28;20095;-71
2021/09/16 09:17:36;;;;;;;31.42;24.33;;;21.20;72.30;;;;;;5007157;28;20037;-75
2021/09/16 09:20:11;;;;;;;27.75;22.73;;;21.50;71.20;;;;;;5003567;28;20045;-70
2021/09/16 09:22:41;;;;;;;22.10;18.08;;;21.30;69.20;;;;;;5005232;28;20062;-70
2021/09/16 09:25:12;;;;;;;26.85;21.90;;;21.30;66.80;;;;;;5002924;28;20096;-69
2021/09/16 09:27:50;;;;;;;33.70;24.15;;;21.60;68.70;;;;;;4998810;28;20041;-73
2021/09/16 09:30:21;;;;;;;29.48;24.50;;;21.30;70.60;;;;;;4999442;28;20080;-70
2021/09/16 09:32:50;;;;;;;29.10;23.30;;;21.30;69.70;;;;;;5004415;28;20041;-71
2021/09/16 09:35:38;;;;;;;30.05;23.08;;;21.00;70.50;;;;;;5002877;28;20441;-70
2021/09/16 09:38:25;;;;;;;26.42;20.95;;;20.80;70.70;;;;;;5002185;28;20038;-71
2021/09/16 09:40:58;;;;;;;26.48;20.17;;;20.60;71.10;;;;;;4998909;28;20109;-72
2021/09/16 09:43:35;;;;;;;26.67;20.17;;;20.60;70.90;;;;;;5003520;28;20041;-75
2021/09/16 09:46:07;;;;;;;24.77;19.08;;;20.90;68.80;;;;;;5002161;28;20042;-71
2021/09/16 09:48:38;;;;;;;26.77;21.58;;;21.50;68.50;;;;;;5001981;28;20037;-71
2021/09/16 09:51:06;;;;;;;22.67;18.65;;;21.80;67.80;;;;;;5003498;28;20030;-70
2021/09/16 09:53:50;;;;;;;25.92;19.20;;;21.70;64.80;;;;;;5004704;28;20062;-71
2021/09/16 09:56:17;;;;;;;23.00;19.10;;;21.20;67.00;;;;;;4998861;28;20031;-71
2021/09/16 09:58:44;;;;;;;23.48;19.23;;;21.10;68.00;;;;;;4997950;28;20117;-70
2021/09/16 10:01:30;;;;;;;24.48;18.65;;;21.20;68.30;;;;;;5006026;28;20044;-71
2021/09/16 10:03:57;;;;;;;20.40;15.93;;;21.60;66.30;;;;;;5002690;28;20145;-72
2021/09/16 10:06:34;;;;;;;20.45;17.33;;;21.70;62.80;;;;;;4993681;28;20054;-71
2021/09/16 10:09:13;;;;;;;20.25;17.38;;;22.00;62.50;;;;;;5004657;28;20026;-72
2021/09/16 10:11:41;;;;;;;18.48;14.25;;;22.40;61.50;;;;;;4989531;28;20035;-70
2021/09/16 10:14:07;;;;;;;22.27;17.65;;;22.20;61.10;;;;;;4976935;28;20548;-69
2021/09/16 10:16:33;;;;;;;20.55;17.73;;;22.00;63.20;;;;;;4984348;28;20038;-71
2021/09/16 10:18:59;;;;;;;19.52;14.68;;;21.60;62.20;;;;;;4982870;28;20026;-70
2021/09/16 10:21:25;;;;;;;21.25;16.80;;;21.60;63.40;;;;;;4980905;28;20141;-70
2021/09/16 10:23:55;;;;;;;21.90;17.92;;;21.80;63.90;;;;;;4979075;28;20065;-70
2021/09/16 10:26:36;;;;;;;18.45;14.73;;;22.10;62.80;;;;;;4976666;28;20125;-75
2021/09/16 10:29:26;;;;;;;18.92;15.00;;;22.10;59.90;;;;;;4986831;28;20038;-71
2021/09/16 10:31:52;;;;;;;17.55;13.35;;;21.90;60.70;;;;;;4982930;28;20042;-70
2021/09/16 10:34:40;;;;;;;17.98;14.68;;;21.80;61.90;;;;;;4985506;28;20026;-71
2021/09/16 10:37:13;;;;;;;19.15;16.33;;;21.80;61.70;;;;;;4982825;28;20042;-72
2021/09/16 10:39:41;;;;;;;19.85;15.68;;;22.30;60.70;;;;;;4986719;28;20041;-72
2021/09/16 10:42:08;;;;;;;17.15;14.32;;;22.70;59.30;;;;;;4985168;28;20037;-72
2021/09/16 10:44:34;;;;;;;20.25;16.70;;;23.00;58.50;;;;;;4986065;28;20054;-70
2021/09/16 10:47:16;;;;;;;19.65;15.07;;;23.00;58.30;;;;;;4991708;28;20046;-72
2021/09/16 10:49:42;;;;;;;16.85;13.88;;;22.90;59.20;;;;;;4989830;28;20448;-69
2021/09/16 10:52:11;;;;;;;17.33;14.45;;;22.80;59.00;;;;;;4985578;28;20089;-72
2021/09/16 10:54:40;;;;;;;18.48;14.20;;;22.20;58.90;;;;;;4990326;28;20042;-70
2021/09/16 10:57:37;;;;;;;17.13;14.38;;;22.00;59.70;;;;;;4987493;28;20117;-70
2021/09/16 11:00:06;;;;;;;20.85;16.42;;;21.50;61.10;;;;;;4992110;28;20039;-71
2021/09/16 11:02:45;;;;;;;20.38;16.15;;;21.30;61.60;;;;;;5003035;28;20398;-72
2021/09/16 11:05:17;;;;;;;20.92;16.70;;;21.10;62.30;;;;;;4985807;28;20058;-70
2021/09/16 11:07:45;;;;;;;18.10;15.38;;;21.60;62.50;;;;;;4988968;28;20042;-70
2021/09/16 11:10:24;;;;;;;16.58;13.23;;;22.10;60.80;;;;;;4988249;28;20038;-72
2021/09/16 11:12:56;;;;;;;17.65;12.50;;;22.60;60.50;;;;;;4984313;28;20074;-71
2021/09/16 11:15:40;;;;;;;16.45;13.55;;;22.70;57.70;;;;;;4986066;28;20047;-74
2021/09/16 11:18:09;;;;;;;17.52;13.45;;;22.70;58.20;;;;;;4983258;28;20051;-71
2021/09/16 11:20:37;;;;;;;19.75;12.90;;;22.60;58.20;;;;;;4986773;28;20038;-70
2021/09/16 11:23:04;;;;;;;15.90;12.07;;;22.50;58.70;;;;;;4986807;28;20185;-72
2021/09/16 11:25:48;;;;;;;18.27;12.20;;;22.60;57.40;;;;;;4987252;28;20070;-70
2021/09/16 11:28:15;;;;;;;16.35;12.70;;;22.60;58.50;;;;;;4983500;28;20367;-72
2021/09/16 11:30:44;;;;;;;15.88;12.75;;;22.60;58.10;;;;;;4985483;28;20145;-70
2021/09/16 11:33:12;;;;;;;14.65;11.65;;;22.50;57.70;;;;;;4985627;28;20042;-74
2021/09/16 11:35:38;;;;;;;16.85;12.60;;;22.60;57.90;;;;;;4997929;28;20057;-70
2021/09/16 11:38:06;;;;;;;16.75;13.68;;;22.60;58.80;;;;;;4988351;28;20723;-71
2021/09/16 11:40:35;;;;;;;16.98;14.30;;;22.50;59.10;;;;;;4989594;28;20481;-71
2021/09/16 11:43:06;;;;;;;16.83;13.38;;;22.40;58.40;;;;;;4986594;28;20073;-73
2021/09/16 11:45:38;;;;;;;16.15;12.60;;;22.50;59.20;;;;;;4988469;28;20162;-70
2021/09/16 11:48:16;;;;;;;15.43;12.70;;;22.30;58.50;;;;;;4982958;28;20039;-71
2021/09/16 11:50:45;;;;;;;17.20;12.25;;;22.60;57.20;;;;;;4981831;28;20445;-71
2021/09/16 11:53:23;;;;;;;17.38;11.23;;;22.90;56.30;;;;;;4986005;28;20027;-72
2021/09/16 11:56:00;;;;;;;15.90;12.85;;;23.20;54.80;;;;;;4983453;28;20051;-71
2021/09/16 11:58:29;;;;;;;16.70;12.32;;;23.20;53.90;;;;;;4983031;28;20040;-72
2021/09/16 12:00:59;;;;;;;16.92;12.48;;;23.10;55.00;;;;;;4984180;28;20050;-75
2021/09/16 12:03:33;;;;;;;14.63;11.70;;;23.30;55.20;;;;;;4986455;28;20034;-70
2021/09/16 12:06:03;;;;;;;14.80;11.98;;;23.30;57.50;;;;;;4976905;28;20490;-71
2021/09/16 12:08:31;;;;;;;16.88;14.07;;;23.10;55.80;;;;;;4985656;28;20346;-71
2021/09/16 12:11:09;;;;;;;15.77;13.30;;;23.10;56.30;;;;;;4986080;28;20066;-71
2021/09/16 12:13:40;;;;;;;15.30;12.25;;;22.90;57.50;;;;;;4997994;28;20089;-72
2021/09/16 12:16:21;;;;;;;15.77;11.98;;;22.90;57.00;;;;;;4996705;28;20185;-72
2021/09/16 12:19:18;;;;;;;15.75;12.00;;;23.00;57.60;;;;;;4986528;28;20038;-71
2021/09/16 12:21:46;;;;;;;17.85;12.43;;;23.00;57.20;;;;;;4991057;28;20045;-70
2021/09/16 12:24:20;;;;;;;16.42;12.95;;;23.00;56.80;;;;;;4996171;28;20046;-71
2021/09/16 12:26:52;;;;;;;;;;;23.10;56.90;;;;;;5008280;28;20046;-71
2021/09/16 12:29:34;;;;;;;16.85;13.38;;;23.20;55.70;;;;;;5006346;28;19921;-71
2021/09/16 12:32:04;;;;;;;15.18;12.55;;;23.60;55.60;;;;;;5006953;28;20037;-69